createdAt,value
2018-12-22T02:40:32.324Z,22.10
2018-12-22T03:07:37.262Z,23.17
2018-12-22T04:27:01.308Z,20.87
2018-12-22T04:29:33.899Z,19.15
2018-12-22T04:49:38.867Z,16.13
2018-12-22T04:52:09.176Z,18.67
2018-12-22T04:54:38.084Z,16.70
2018-12-22T04:57:07.031Z,18.10
2018-12-22T04:59:59.350Z,21.60
2018-12-22T05:02:28.607Z,18.73
2018-12-22T06:30:09.050Z,14.13
2018-12-22T06:32:39.062Z,14.50
2018-12-22T06:35:08.303Z,13.90
2018-12-22T06:37:37.363Z,14.00
2018-12-22T06:40:08.402Z,14.60
2018-12-22T06:42:43.130Z,15.83
2018-12-22T06:45:22.715Z,15.07
2018-12-22T07:37:03.834Z,13.07
2018-12-22T10:30:21.007Z,21.20
2018-12-22T11:50:36.974Z,22.80
2018-12-22T11:53:05.963Z,22.60
2018-12-22T11:55:34.979Z,24.07
2018-12-22T11:58:23.171Z,23.47
2018-12-22T12:01:00.878Z,21.17
2018-12-22T12:03:37.647Z,22.17
2018-12-22T13:08:53.612Z,16.80
2018-12-22T13:11:23.175Z,13.80
2018-12-22T13:26:51.422Z,15.97
2018-12-22T13:29:19.972Z,13.77
2018-12-22T13:32:31.550Z,15.23
2018-12-22T13:35:07.627Z,15.57
2018-12-22T13:37:38.531Z,18.70
2018-12-22T13:41:02.522Z,15.53
2018-12-22T13:45:26.050Z,18.50
2018-12-22T14:05:37.219Z,19.13
2018-12-22T14:08:21.726Z,20.68
2018-12-22T14:59:34.078Z,10.77
2018-12-22T15:02:10.282Z,13.10
2018-12-22T15:04:39.070Z,13.07
2018-12-22T15:07:09.565Z,13.43
2018-12-22T15:09:38.226Z,13.70
2018-12-22T15:12:06.998Z,12.53
2018-12-22T15:14:35.814Z,14.33
2018-12-22T15:17:04.526Z,13.20
2018-12-22T15:19:37.265Z,10.20
2018-12-22T15:22:06.646Z,12.07
2018-12-22T15:24:37.510Z,11.03
2018-12-22T15:27:05.997Z,11.73
2018-12-22T15:51:40.798Z,8.20
2018-12-22T15:54:15.237Z,7.10
2018-12-22T15:56:43.789Z,8.17
2018-12-22T15:59:22.413Z,6.57
2018-12-22T16:01:58.781Z,7.87
2018-12-22T16:04:45.032Z,8.03
2018-12-22T16:07:14.769Z,7.43
2018-12-22T16:09:43.666Z,6.43
2018-12-22T16:12:12.641Z,6.87
2018-12-22T16:14:46.529Z,7.33
2018-12-22T16:17:37.465Z,7.00
2018-12-22T16:20:07.885Z,7.03
2018-12-22T16:22:36.556Z,6.37
2018-12-22T16:25:11.332Z,7.83
2018-12-22T16:27:35.381Z,6.80
2018-12-22T16:30:07.845Z,6.63
2018-12-22T16:32:36.829Z,5.37
2018-12-22T16:35:06.089Z,6.83
2018-12-22T16:37:34.705Z,6.80
2018-12-22T16:40:03.561Z,6.90
2018-12-22T16:42:34.837Z,6.27
2018-12-22T16:45:03.712Z,6.80
2018-12-22T16:47:32.373Z,5.83
2018-12-22T16:50:01.040Z,6.60
2018-12-22T16:52:29.848Z,6.73
2018-12-22T16:54:58.841Z,6.07
2018-12-22T16:57:27.505Z,6.37
2018-12-22T17:06:08.461Z,8.07
2018-12-22T17:08:37.101Z,6.67
2018-12-22T17:11:06.917Z,7.00
2018-12-22T17:13:35.537Z,7.80
2018-12-22T17:16:05.021Z,7.33
2018-12-22T17:18:33.616Z,6.97
2018-12-22T17:21:42.657Z,7.73
2018-12-22T17:24:20.241Z,7.00
2018-12-22T17:26:48.770Z,8.53
2018-12-22T17:29:17.354Z,8.60
2018-12-22T17:31:45.903Z,9.60
2018-12-22T17:34:14.442Z,9.33
2018-12-22T17:36:43.325Z,9.60
2018-12-22T17:39:13.860Z,11.80
2018-12-22T17:41:43.491Z,10.57
2018-12-22T17:44:11.986Z,9.90
2018-12-22T17:46:40.846Z,10.03
2018-12-22T17:49:09.658Z,9.30
2018-12-22T17:51:38.350Z,8.93
2018-12-22T17:54:06.990Z,8.43
2018-12-22T17:56:35.497Z,8.63
2018-12-22T17:59:04.766Z,8.70
2018-12-22T18:01:33.482Z,8.60
2018-12-22T18:04:02.330Z,9.00
2018-12-22T18:06:30.914Z,9.33
2018-12-22T18:09:00.635Z,8.57
2018-12-22T18:11:29.315Z,8.07
2018-12-22T18:13:57.986Z,6.93
2018-12-22T18:16:26.774Z,6.93
2018-12-22T18:18:55.438Z,7.00
2018-12-22T18:21:24.045Z,7.53
2018-12-22T18:23:52.822Z,7.25
2018-12-22T18:26:21.314Z,7.17
2018-12-22T18:28:49.977Z,6.57
2018-12-22T18:31:18.843Z,6.13
2018-12-22T18:33:47.389Z,6.77
2018-12-22T18:36:15.989Z,6.03
2018-12-22T18:38:44.495Z,6.07
2018-12-22T18:41:13.246Z,6.57
2018-12-22T18:43:42.265Z,5.83
2018-12-22T18:46:11.297Z,5.87
2018-12-22T18:48:40.013Z,7.27
2018-12-22T18:51:08.789Z,7.17
2018-12-22T18:53:37.869Z,7.07
2018-12-22T18:56:07.209Z,7.03
2018-12-22T18:58:36.048Z,6.92
2018-12-22T19:01:04.997Z,6.87
2018-12-22T19:03:44.450Z,6.73
2018-12-22T19:06:06.346Z,7.93
2018-12-22T19:08:35.378Z,7.27
2018-12-22T19:11:08.757Z,7.20
2018-12-22T19:13:37.509Z,8.43
2018-12-22T19:16:06.405Z,6.80
2018-12-22T19:18:35.381Z,7.20
2018-12-22T19:21:05.165Z,6.53
2018-12-22T19:23:33.821Z,7.80
2018-12-22T19:26:02.475Z,7.10
2018-12-22T19:28:31.541Z,7.37
2018-12-22T19:31:00.341Z,6.40
2018-12-22T19:33:29.092Z,5.13
2018-12-22T19:35:57.773Z,5.97
2018-12-22T19:38:26.458Z,6.40
2018-12-22T19:40:57.525Z,6.62
2018-12-22T19:43:26.493Z,6.60
2018-12-22T19:45:55.039Z,6.90
2018-12-22T19:48:23.740Z,7.93
2018-12-22T19:50:58.271Z,8.38
2018-12-22T19:53:27.035Z,8.23
2018-12-22T19:55:55.853Z,8.30
2018-12-22T19:58:25.046Z,9.23
2018-12-22T20:00:54.242Z,8.37
2018-12-22T20:03:23.150Z,10.00
2018-12-22T20:05:51.974Z,9.37
2018-12-22T20:08:21.078Z,8.37
2018-12-22T20:10:50.399Z,10.20
2018-12-22T20:13:18.963Z,9.77
2018-12-22T20:15:48.009Z,9.60
2018-12-22T20:18:16.634Z,12.00
2018-12-22T20:20:45.114Z,11.03
2018-12-22T20:23:13.651Z,13.60
2018-12-22T20:25:42.673Z,15.00
2018-12-22T20:28:10.834Z,13.27
2018-12-22T20:30:39.646Z,10.07
2018-12-22T20:33:08.490Z,13.50
2018-12-22T20:35:37.073Z,12.40
2018-12-22T20:38:05.849Z,11.43
2018-12-22T20:40:34.409Z,10.17
2018-12-22T20:43:03.189Z,7.33
2018-12-22T20:45:31.709Z,10.13
2018-12-22T20:48:00.181Z,8.67
2018-12-22T20:50:28.701Z,8.30
2018-12-22T20:52:57.461Z,13.00
2018-12-22T20:55:26.266Z,15.15
2018-12-22T20:57:54.794Z,11.50
2018-12-22T21:00:23.287Z,11.43
2018-12-22T21:02:51.761Z,9.50
2018-12-22T21:05:20.474Z,11.00
2018-12-22T21:07:49.103Z,11.33
2018-12-22T21:10:17.738Z,13.10
2018-12-22T21:12:46.277Z,10.17
2018-12-22T21:16:17.690Z,12.93
2018-12-22T21:18:46.353Z,9.07
2018-12-22T21:21:15.058Z,9.10
2018-12-22T21:24:16.210Z,9.13
2018-12-22T21:26:57.285Z,11.90
2018-12-22T21:29:28.646Z,13.60
2018-12-22T21:31:57.557Z,10.03
2018-12-22T21:34:28.454Z,8.13
2018-12-22T21:36:56.709Z,8.03
2018-12-22T21:39:26.021Z,7.03
2018-12-22T21:41:54.725Z,7.53
2018-12-22T21:44:23.797Z,6.80
2018-12-22T21:46:52.821Z,7.10
2018-12-22T21:49:21.805Z,6.95
2018-12-22T21:51:50.909Z,6.63
2018-12-22T21:54:19.874Z,7.40
2018-12-22T21:56:49.174Z,7.37
2018-12-22T22:02:10.870Z,7.87
2018-12-22T22:04:39.734Z,6.13
2018-12-22T22:07:08.794Z,5.67
2018-12-22T22:09:38.726Z,6.17
2018-12-22T22:12:07.626Z,6.10
2018-12-22T22:14:43.954Z,5.90
2018-12-22T22:17:13.339Z,4.60
2018-12-22T22:19:42.274Z,6.30
2018-12-22T22:22:10.910Z,5.13
2018-12-22T22:24:39.562Z,6.77
2018-12-22T22:27:08.354Z,5.40
2018-12-22T22:29:37.542Z,5.95
2018-12-22T22:32:06.226Z,6.20
2018-12-22T22:34:35.206Z,5.30
2018-12-22T22:37:04.030Z,5.53
2018-12-22T22:39:32.522Z,5.37
2018-12-22T22:42:00.994Z,5.30
2018-12-22T22:44:29.604Z,5.10
2018-12-22T22:46:58.858Z,4.90
2018-12-22T22:49:27.670Z,5.00
2018-12-22T22:51:56.286Z,4.83
2018-12-22T22:54:24.794Z,6.30
2018-12-22T22:56:53.314Z,5.80
2018-12-22T22:59:21.842Z,5.10
2018-12-22T23:01:50.434Z,5.03
2018-12-22T23:04:19.225Z,4.75
2018-12-22T23:06:49.581Z,4.93
2018-12-22T23:09:18.321Z,4.90
2018-12-22T23:11:46.909Z,4.90
2018-12-22T23:14:15.421Z,4.13
2018-12-22T23:16:44.255Z,4.67
2018-12-22T23:19:12.841Z,4.70
2018-12-22T23:21:41.754Z,4.63
2018-12-22T23:24:10.493Z,3.40
2018-12-22T23:26:39.321Z,3.97
2018-12-22T23:29:07.843Z,3.93
2018-12-22T23:31:36.718Z,5.13
2018-12-22T23:34:05.185Z,4.40
2018-12-22T23:36:34.064Z,4.73
2018-12-22T23:39:02.620Z,4.53
2018-12-22T23:41:31.067Z,5.08
2018-12-22T23:43:59.595Z,5.10
2018-12-22T23:46:28.428Z,5.27
2018-12-22T23:48:57.147Z,5.20
2018-12-22T23:51:25.715Z,4.97
2018-12-22T23:53:54.916Z,4.70
2018-12-22T23:56:23.395Z,5.67
2018-12-22T23:58:51.875Z,5.10
